sensor_id;sensor_type;location;lat;lon;timestamp;P1;durP1;ratioP1;P2;durP2;ratioP2
11414;SDS011;5763;42.714;23.244;2024-01-25T00:00:59;2.08;;;1.83;;
11414;SDS011;5763;42.714;23.244;2024-01-25T00:03:27;3.03;;;2.25;;
11414;SDS011;5763;42.714;23.244;2024-01-25T00:05:54;2.38;;;2.05;;
11414;SDS011;5763;42.714;23.244;2024-01-25T00:08:21;1.35;;;1.23;;
11414;SDS011;5763;42.714;23.244;2024-01-25T00:10:49;2.00;;;1.58;;
11414;SDS011;5763;42.714;23.244;2024-01-25T00:13:17;2.97;;;1.60;;
11414;SDS011;5763;42.714;23.244;2024-01-25T00:15:44;2.72;;;1.00;;
11414;SDS011;5763;42.714;23.244;2024-01-25T00:18:13;1.70;;;0.95;;
11414;SDS011;5763;42.714;23.244;2024-01-25T00:20:40;1.33;;;1.23;;
11414;SDS011;5763;42.714;23.244;2024-01-25T00:23:07;1.30;;;1.20;;
11414;SDS011;5763;42.714;23.244;2024-01-25T00:25:35;2.83;;;1.27;;
11414;SDS011;5763;42.714;23.244;2024-01-25T00:28:02;5.15;;;1.70;;
11414;SDS011;5763;42.714;23.244;2024-01-25T00:30:29;1.73;;;1.58;;
11414;SDS011;5763;42.714;23.244;2024-01-25T00:32:57;2.80;;;1.55;;
11414;SDS011;5763;42.714;23.244;2024-01-25T00:35:27;3.67;;;2.20;;
11414;SDS011;5763;42.714;23.244;2024-01-25T00:37:55;3.53;;;2.58;;
11414;SDS011;5763;42.714;23.244;2024-01-25T00:40:22;2.35;;;1.70;;
11414;SDS011;5763;42.714;23.244;2024-01-25T00:42:50;1.77;;;1.48;;
11414;SDS011;5763;42.714;23.244;2024-01-25T00:45:20;1.67;;;1.50;;
11414;SDS011;5763;42.714;23.244;2024-01-25T00:47:49;2.53;;;1.73;;
11414;SDS011;5763;42.714;23.244;2024-01-25T00:50:18;1.83;;;1.55;;
11414;SDS011;5763;42.714;23.244;2024-01-25T00:52:54;3.10;;;2.08;;
11414;SDS011;5763;42.714;23.244;2024-01-25T00:55:21;4.45;;;1.95;;
11414;SDS011;5763;42.714;23.244;2024-01-25T00:57:49;1.02;;;0.77;;
11414;SDS011;5763;42.714;23.244;2024-01-25T01:00:18;1.17;;;0.60;;
11414;SDS011;5763;42.714;23.244;2024-01-25T01:02:47;1.45;;;1.02;;
11414;SDS011;5763;42.714;23.244;2024-01-25T01:05:14;0.95;;;0.50;;
11414;SDS011;5763;42.714;23.244;2024-01-25T01:07:42;0.22;;;0.22;;
11414;SDS011;5763;42.714;23.244;2024-01-25T01:10:12;0.80;;;0.63;;
11414;SDS011;5763;42.714;23.244;2024-01-25T01:12:39;0.70;;;0.45;;
11414;SDS011;5763;42.714;23.244;2024-01-25T01:15:07;0.75;;;0.55;;
11414;SDS011;5763;42.714;23.244;2024-01-25T01:17:35;1.05;;;0.60;;
11414;SDS011;5763;42.714;23.244;2024-01-25T01:20:03;1.65;;;0.47;;
11414;SDS011;5763;42.714;23.244;2024-01-25T01:22:31;0.50;;;0.50;;
11414;SDS011;5763;42.714;23.244;2024-01-25T01:24:58;0.82;;;0.80;;
11414;SDS011;5763;42.714;23.244;2024-01-25T01:27:27;0.70;;;0.45;;
11414;SDS011;5763;42.714;23.244;2024-01-25T01:29:55;0.30;;;0.20;;
11414;SDS011;5763;42.714;23.244;2024-01-25T01:32:25;0.00;;;0.00;;
11414;SDS011;5763;42.714;23.244;2024-01-25T01:34:52;0.57;;;0.43;;
11414;SDS011;5763;42.714;23.244;2024-01-25T01:37:20;0.10;;;0.10;;
11414;SDS011;5763;42.714;23.244;2024-01-25T01:39:48;1.05;;;0.40;;
11414;SDS011;5763;42.714;23.244;2024-01-25T01:42:16;0.60;;;0.40;;
11414;SDS011;5763;42.714;23.244;2024-01-25T01:44:45;0.73;;;0.68;;
11414;SDS011;5763;42.714;23.244;2024-01-25T01:47:13;0.35;;;0.28;;
11414;SDS011;5763;42.714;23.244;2024-01-25T01:49:40;0.45;;;0.40;;
11414;SDS011;5763;42.714;23.244;2024-01-25T01:52:07;0.50;;;0.25;;
11414;SDS011;5763;42.714;23.244;2024-01-25T01:54:35;1.38;;;0.52;;
11414;SDS011;5763;42.714;23.244;2024-01-25T01:57:03;0.35;;;0.30;;
11414;SDS011;5763;42.714;23.244;2024-01-25T01:59:32;0.68;;;0.30;;
11414;SDS011;5763;42.714;23.244;2024-01-25T02:02:01;0.20;;;0.20;;
11414;SDS011;5763;42.714;23.244;2024-01-25T02:04:28;0.20;;;0.20;;
11414;SDS011;5763;42.714;23.244;2024-01-25T02:06:55;0.68;;;0.35;;
11414;SDS011;5763;42.714;23.244;2024-01-25T02:09:23;0.93;;;0.30;;
11414;SDS011;5763;42.714;23.244;2024-01-25T02:11:58;0.00;;;0.00;;
11414;SDS011;5763;42.714;23.244;2024-01-25T02:14:26;1.48;;;0.20;;
11414;SDS011;5763;42.714;23.244;2024-01-25T02:16:54;0.10;;;0.10;;
11414;SDS011;5763;42.714;23.244;2024-01-25T02:19:23;0.95;;;0.45;;
11414;SDS011;5763;42.714;23.244;2024-01-25T02:21:51;0.77;;;0.30;;
11414;SDS011;5763;42.714;23.244;2024-01-25T02:24:24;1.27;;;0.52;;
11414;SDS011;5763;42.714;23.244;2024-01-25T02:26:53;0.95;;;0.52;;
11414;SDS011;5763;42.714;23.244;2024-01-25T02:29:21;1.90;;;0.88;;
11414;SDS011;5763;42.714;23.244;2024-01-25T02:31:49;0.70;;;0.60;;
11414;SDS011;5763;42.714;23.244;2024-01-25T02:34:16;0.47;;;0.47;;
11414;SDS011;5763;42.714;23.244;2024-01-25T02:36:44;1.65;;;0.90;;
11414;SDS011;5763;42.714;23.244;2024-01-25T02:39:11;0.75;;;0.30;;
11414;SDS011;5763;42.714;23.244;2024-01-25T02:41:40;0.32;;;0.32;;
11414;SDS011;5763;42.714;23.244;2024-01-25T02:44:07;1.38;;;0.60;;
11414;SDS011;5763;42.714;23.244;2024-01-25T02:46:35;0.43;;;0.43;;
11414;SDS011;5763;42.714;23.244;2024-01-25T02:49:03;1.15;;;0.95;;
11414;SDS011;5763;42.714;23.244;2024-01-25T02:51:31;0.45;;;0.43;;
11414;SDS011;5763;42.714;23.244;2024-01-25T02:53:58;0.85;;;0.10;;
11414;SDS011;5763;42.714;23.244;2024-01-25T02:56:25;1.75;;;0.85;;
11414;SDS011;5763;42.714;23.244;2024-01-25T02:59:00;2.08;;;0.55;;
11414;SDS011;5763;42.714;23.244;2024-01-25T03:01:28;0.10;;;0.10;;
11414;SDS011;5763;42.714;23.244;2024-01-25T03:04:03;0.22;;;0.22;;
11414;SDS011;5763;42.714;23.244;2024-01-25T03:06:31;0.20;;;0.20;;
11414;SDS011;5763;42.714;23.244;2024-01-25T03:08:58;0.85;;;0.30;;
11414;SDS011;5763;42.714;23.244;2024-01-25T03:11:26;0.20;;;0.20;;
11414;SDS011;5763;42.714;23.244;2024-01-25T03:13:53;0.00;;;0.00;;
11414;SDS011;5763;42.714;23.244;2024-01-25T03:16:22;0.25;;;0.10;;
11414;SDS011;5763;42.714;23.244;2024-01-25T03:18:49;0.20;;;0.20;;
11414;SDS011;5763;42.714;23.244;2024-01-25T03:21:17;1.45;;;0.40;;
11414;SDS011;5763;42.714;23.244;2024-01-25T03:23:44;0.40;;;0.25;;
11414;SDS011;5763;42.714;23.244;2024-01-25T03:26:12;0.13;;;0.03;;
11414;SDS011;5763;42.714;23.244;2024-01-25T03:28:39;0.30;;;0.30;;
11414;SDS011;5763;42.714;23.244;2024-01-25T03:31:07;0.85;;;0.77;;
11414;SDS011;5763;42.714;23.244;2024-01-25T03:33:36;0.68;;;0.55;;
11414;SDS011;5763;42.714;23.244;2024-01-25T03:36:05;0.35;;;0.35;;
11414;SDS011;5763;42.714;23.244;2024-01-25T03:38:35;0.47;;;0.10;;
11414;SDS011;5763;42.714;23.244;2024-01-25T03:41:03;0.35;;;0.30;;
11414;SDS011;5763;42.714;23.244;2024-01-25T03:43:31;0.35;;;0.35;;
11414;SDS011;5763;42.714;23.244;2024-01-25T03:45:59;0.22;;;0.22;;
11414;SDS011;5763;42.714;23.244;2024-01-25T03:48:26;0.77;;;0.50;;
11414;SDS011;5763;42.714;23.244;2024-01-25T03:50:57;0.68;;;0.52;;
11414;SDS011;5763;42.714;23.244;2024-01-25T03:53:43;0.20;;;0.20;;
11414;SDS011;5763;42.714;23.244;2024-01-25T03:56:11;0.30;;;0.22;;
11414;SDS011;5763;42.714;23.244;2024-01-25T03:58:44;0.08;;;0.08;;
11414;SDS011;5763;42.714;23.244;2024-01-25T04:01:13;2.35;;;0.30;;
11414;SDS011;5763;42.714;23.244;2024-01-25T04:03:41;0.00;;;0.00;;
11414;SDS011;5763;42.714;23.244;2024-01-25T04:06:08;6.18;;;0.43;;
11414;SDS011;5763;42.714;23.244;2024-01-25T04:08:36;0.50;;;0.15;;
11414;SDS011;5763;42.714;23.244;2024-01-25T04:11:07;0.43;;;0.40;;
11414;SDS011;5763;42.714;23.244;2024-01-25T04:13:35;0.20;;;0.20;;
11414;SDS011;5763;42.714;23.244;2024-01-25T04:16:04;0.15;;;0.15;;
11414;SDS011;5763;42.714;23.244;2024-01-25T04:18:32;0.22;;;0.20;;
11414;SDS011;5763;42.714;23.244;2024-01-25T04:21:00;1.85;;;0.47;;
11414;SDS011;5763;42.714;23.244;2024-01-25T04:23:28;1.05;;;0.75;;
11414;SDS011;5763;42.714;23.244;2024-01-25T04:25:55;0.68;;;0.65;;
11414;SDS011;5763;42.714;23.244;2024-01-25T04:28:24;0.82;;;0.50;;
11414;SDS011;5763;42.714;23.244;2024-01-25T04:30:53;2.55;;;1.05;;
11414;SDS011;5763;42.714;23.244;2024-01-25T04:33:21;1.17;;;0.55;;
11414;SDS011;5763;42.714;23.244;2024-01-25T04:35:48;0.52;;;0.52;;
11414;SDS011;5763;42.714;23.244;2024-01-25T04:38:16;1.40;;;0.40;;
11414;SDS011;5763;42.714;23.244;2024-01-25T04:40:43;0.60;;;0.60;;
11414;SDS011;5763;42.714;23.244;2024-01-25T04:43:10;2.35;;;1.58;;
11414;SDS011;5763;42.714;23.244;2024-01-25T04:45:40;1.63;;;0.88;;
11414;SDS011;5763;42.714;23.244;2024-01-25T04:48:08;1.65;;;0.90;;
11414;SDS011;5763;42.714;23.244;2024-01-25T04:50:35;1.17;;;0.90;;
11414;SDS011;5763;42.714;23.244;2024-01-25T04:53:04;1.05;;;0.70;;
11414;SDS011;5763;42.714;23.244;2024-01-25T04:55:32;1.50;;;1.13;;
11414;SDS011;5763;42.714;23.244;2024-01-25T04:57:59;1.85;;;0.60;;
11414;SDS011;5763;42.714;23.244;2024-01-25T05:00:26;1.33;;;0.50;;
11414;SDS011;5763;42.714;23.244;2024-01-25T05:02:56;1.20;;;0.60;;
11414;SDS011;5763;42.714;23.244;2024-01-25T05:05:23;3.22;;;1.15;;
11414;SDS011;5763;42.714;23.244;2024-01-25T05:07:52;0.88;;;0.57;;
11414;SDS011;5763;42.714;23.244;2024-01-25T05:10:19;0.60;;;0.60;;
11414;SDS011;5763;42.714;23.244;2024-01-25T05:12:48;0.57;;;0.40;;
11414;SDS011;5763;42.714;23.244;2024-01-25T05:15:16;1.60;;;0.20;;
11414;SDS011;5763;42.714;23.244;2024-01-25T05:17:43;0.73;;;0.22;;
11414;SDS011;5763;42.714;23.244;2024-01-25T05:20:13;1.73;;;0.30;;
11414;SDS011;5763;42.714;23.244;2024-01-25T05:22:43;1.38;;;0.38;;
11414;SDS011;5763;42.714;23.244;2024-01-25T05:25:11;1.45;;;0.95;;
11414;SDS011;5763;42.714;23.244;2024-01-25T05:27:38;0.82;;;0.80;;
11414;SDS011;5763;42.714;23.244;2024-01-25T05:30:06;1.55;;;0.60;;
11414;SDS011;5763;42.714;23.244;2024-01-25T05:32:36;1.55;;;0.68;;
11414;SDS011;5763;42.714;23.244;2024-01-25T05:35:04;0.85;;;0.50;;
11414;SDS011;5763;42.714;23.244;2024-01-25T05:37:37;0.30;;;0.30;;
11414;SDS011;5763;42.714;23.244;2024-01-25T05:40:04;2.40;;;0.40;;
11414;SDS011;5763;42.714;23.244;2024-01-25T05:42:32;1.17;;;0.43;;
11414;SDS011;5763;42.714;23.244;2024-01-25T05:45:00;0.10;;;0.10;;
11414;SDS011;5763;42.714;23.244;2024-01-25T05:47:28;0.32;;;0.28;;
11414;SDS011;5763;42.714;23.244;2024-01-25T05:49:56;0.25;;;0.25;;
11414;SDS011;5763;42.714;23.244;2024-01-25T05:52:23;1.65;;;0.38;;
11414;SDS011;5763;42.714;23.244;2024-01-25T05:54:53;0.73;;;0.38;;
11414;SDS011;5763;42.714;23.244;2024-01-25T05:57:21;2.35;;;0.60;;
11414;SDS011;5763;42.714;23.244;2024-01-25T05:59:49;0.32;;;0.30;;
11414;SDS011;5763;42.714;23.244;2024-01-25T06:02:16;1.92;;;0.47;;
11414;SDS011;5763;42.714;23.244;2024-01-25T06:04:44;6.72;;;0.90;;
11414;SDS011;5763;42.714;23.244;2024-01-25T06:07:12;1.48;;;1.38;;
11414;SDS011;5763;42.714;23.244;2024-01-25T06:09:40;0.57;;;0.55;;
11414;SDS011;5763;42.714;23.244;2024-01-25T06:12:09;1.10;;;0.82;;
11414;SDS011;5763;42.714;23.244;2024-01-25T06:14:37;0.90;;;0.73;;
11414;SDS011;5763;42.714;23.244;2024-01-25T06:17:08;2.22;;;0.65;;
11414;SDS011;5763;42.714;23.244;2024-01-25T06:19:35;0.75;;;0.75;;
11414;SDS011;5763;42.714;23.244;2024-01-25T06:22:03;1.50;;;0.45;;
11414;SDS011;5763;42.714;23.244;2024-01-25T06:24:31;0.57;;;0.57;;
11414;SDS011;5763;42.714;23.244;2024-01-25T06:26:58;0.80;;;0.80;;
11414;SDS011;5763;42.714;23.244;2024-01-25T06:29:27;0.98;;;0.88;;
11414;SDS011;5763;42.714;23.244;2024-01-25T06:31:54;1.63;;;0.90;;
11414;SDS011;5763;42.714;23.244;2024-01-25T06:34:22;0.13;;;0.13;;
11414;SDS011;5763;42.714;23.244;2024-01-25T06:36:49;1.25;;;0.82;;
11414;SDS011;5763;42.714;23.244;2024-01-25T06:39:17;0.77;;;0.38;;
11414;SDS011;5763;42.714;23.244;2024-01-25T06:41:45;1.02;;;0.82;;
11414;SDS011;5763;42.714;23.244;2024-01-25T06:44:12;1.75;;;0.43;;
11414;SDS011;5763;42.714;23.244;2024-01-25T06:46:41;0.90;;;0.70;;
11414;SDS011;5763;42.714;23.244;2024-01-25T06:49:08;1.85;;;0.77;;
11414;SDS011;5763;42.714;23.244;2024-01-25T06:51:36;1.13;;;0.60;;
11414;SDS011;5763;42.714;23.244;2024-01-25T06:54:05;0.50;;;0.50;;
11414;SDS011;5763;42.714;23.244;2024-01-25T06:56:33;0.50;;;0.50;;
11414;SDS011;5763;42.714;23.244;2024-01-25T06:59:01;0.73;;;0.60;;
11414;SDS011;5763;42.714;23.244;2024-01-25T07:01:29;0.55;;;0.52;;
11414;SDS011;5763;42.714;23.244;2024-01-25T07:03:59;0.63;;;0.60;;
11414;SDS011;5763;42.714;23.244;2024-01-25T07:06:28;2.55;;;0.50;;
11414;SDS011;5763;42.714;23.244;2024-01-25T07:08:56;0.43;;;0.43;;
11414;SDS011;5763;42.714;23.244;2024-01-25T07:11:24;0.82;;;0.50;;
11414;SDS011;5763;42.714;23.244;2024-01-25T07:13:51;0.77;;;0.60;;
11414;SDS011;5763;42.714;23.244;2024-01-25T07:16:19;0.60;;;0.32;;
11414;SDS011;5763;42.714;23.244;2024-01-25T07:18:47;0.82;;;0.68;;
11414;SDS011;5763;42.714;23.244;2024-01-25T07:21:15;1.67;;;1.38;;
11414;SDS011;5763;42.714;23.244;2024-01-25T07:23:43;0.98;;;0.85;;
11414;SDS011;5763;42.714;23.244;2024-01-25T07:26:15;1.58;;;1.25;;
11414;SDS011;5763;42.714;23.244;2024-01-25T07:28:43;2.45;;;1.20;;
11414;SDS011;5763;42.714;23.244;2024-01-25T07:31:11;1.00;;;0.70;;
11414;SDS011;5763;42.714;23.244;2024-01-25T07:33:39;0.30;;;0.30;;
11414;SDS011;5763;42.714;23.244;2024-01-25T07:36:06;0.32;;;0.32;;
11414;SDS011;5763;42.714;23.244;2024-01-25T07:38:36;0.82;;;0.60;;
11414;SDS011;5763;42.714;23.244;2024-01-25T07:41:03;2.15;;;0.93;;
11414;SDS011;5763;42.714;23.244;2024-01-25T07:43:32;1.00;;;0.73;;
11414;SDS011;5763;42.714;23.244;2024-01-25T07:45:59;0.70;;;0.20;;
11414;SDS011;5763;42.714;23.244;2024-01-25T07:48:27;0.75;;;0.60;;
11414;SDS011;5763;42.714;23.244;2024-01-25T07:50:57;0.95;;;0.73;;
11414;SDS011;5763;42.714;23.244;2024-01-25T07:53:24;0.75;;;0.38;;
11414;SDS011;5763;42.714;23.244;2024-01-25T07:55:53;0.95;;;0.75;;
11414;SDS011;5763;42.714;23.244;2024-01-25T07:58:20;0.70;;;0.40;;
11414;SDS011;5763;42.714;23.244;2024-01-25T08:00:48;0.65;;;0.40;;
11414;SDS011;5763;42.714;23.244;2024-01-25T08:03:16;0.43;;;0.40;;
11414;SDS011;5763;42.714;23.244;2024-01-25T08:05:44;0.82;;;0.77;;
11414;SDS011;5763;42.714;23.244;2024-01-25T08:08:11;1.30;;;0.68;;
11414;SDS011;5763;42.714;23.244;2024-01-25T08:10:39;1.42;;;1.13;;
11414;SDS011;5763;42.714;23.244;2024-01-25T08:13:08;0.25;;;0.25;;
11414;SDS011;5763;42.714;23.244;2024-01-25T08:15:36;1.00;;;0.57;;
11414;SDS011;5763;42.714;23.244;2024-01-25T08:18:04;1.38;;;0.52;;
11414;SDS011;5763;42.714;23.244;2024-01-25T08:20:32;2.47;;;0.65;;
11414;SDS011;5763;42.714;23.244;2024-01-25T08:22:59;2.58;;;0.75;;
11414;SDS011;5763;42.714;23.244;2024-01-25T08:25:27;1.35;;;0.70;;
11414;SDS011;5763;42.714;23.244;2024-01-25T08:27:57;1.08;;;0.65;;
11414;SDS011;5763;42.714;23.244;2024-01-25T08:30:26;0.20;;;0.20;;
11414;SDS011;5763;42.714;23.244;2024-01-25T08:32:54;0.70;;;0.70;;
11414;SDS011;5763;42.714;23.244;2024-01-25T08:35:22;1.25;;;0.90;;
11414;SDS011;5763;42.714;23.244;2024-01-25T08:37:49;1.10;;;0.68;;
11414;SDS011;5763;42.714;23.244;2024-01-25T08:40:17;1.52;;;0.65;;
11414;SDS011;5763;42.714;23.244;2024-01-25T08:42:45;1.20;;;0.50;;
11414;SDS011;5763;42.714;23.244;2024-01-25T08:45:12;1.02;;;0.50;;
11414;SDS011;5763;42.714;23.244;2024-01-25T08:47:41;1.17;;;0.63;;
11414;SDS011;5763;42.714;23.244;2024-01-25T08:50:11;1.45;;;0.52;;
11414;SDS011;5763;42.714;23.244;2024-01-25T08:52:38;0.32;;;0.32;;
11414;SDS011;5763;42.714;23.244;2024-01-25T08:55:09;0.50;;;0.35;;
11414;SDS011;5763;42.714;23.244;2024-01-25T08:57:37;1.52;;;0.57;;
11414;SDS011;5763;42.714;23.244;2024-01-25T09:00:05;0.63;;;0.60;;
11414;SDS011;5763;42.714;23.244;2024-01-25T09:02:35;0.25;;;0.20;;
11414;SDS011;5763;42.714;23.244;2024-01-25T09:05:06;0.65;;;0.65;;
11414;SDS011;5763;42.714;23.244;2024-01-25T09:07:35;0.95;;;0.63;;
11414;SDS011;5763;42.714;23.244;2024-01-25T09:10:02;0.80;;;0.52;;
11414;SDS011;5763;42.714;23.244;2024-01-25T09:12:31;0.20;;;0.20;;
11414;SDS011;5763;42.714;23.244;2024-01-25T09:14:58;1.15;;;0.60;;
11414;SDS011;5763;42.714;23.244;2024-01-25T09:17:25;1.67;;;0.63;;
11414;SDS011;5763;42.714;23.244;2024-01-25T09:19:53;1.38;;;0.93;;
11414;SDS011;5763;42.714;23.244;2024-01-25T09:22:25;0.30;;;0.30;;
11414;SDS011;5763;42.714;23.244;2024-01-25T09:24:53;1.65;;;0.93;;
11414;SDS011;5763;42.714;23.244;2024-01-25T09:27:20;1.95;;;0.88;;
11414;SDS011;5763;42.714;23.244;2024-01-25T09:29:48;0.57;;;0.57;;
11414;SDS011;5763;42.714;23.244;2024-01-25T09:32:15;1.05;;;0.93;;
11414;SDS011;5763;42.714;23.244;2024-01-25T09:34:43;0.32;;;0.32;;
11414;SDS011;5763;42.714;23.244;2024-01-25T09:37:10;2.33;;;0.82;;
11414;SDS011;5763;42.714;23.244;2024-01-25T09:39:39;1.58;;;0.68;;
11414;SDS011;5763;42.714;23.244;2024-01-25T09:42:07;2.88;;;1.20;;
11414;SDS011;5763;42.714;23.244;2024-01-25T09:44:34;1.73;;;1.23;;
11414;SDS011;5763;42.714;23.244;2024-01-25T09:47:02;4.10;;;2.00;;
11414;SDS011;5763;42.714;23.244;2024-01-25T09:49:32;3.00;;;1.73;;
11414;SDS011;5763;42.714;23.244;2024-01-25T09:52:00;2.67;;;1.50;;
11414;SDS011;5763;42.714;23.244;2024-01-25T09:54:30;2.97;;;1.55;;
11414;SDS011;5763;42.714;23.244;2024-01-25T09:57:02;1.92;;;1.55;;
11414;SDS011;5763;42.714;23.244;2024-01-25T09:59:35;3.70;;;1.73;;
11414;SDS011;5763;42.714;23.244;2024-01-25T10:02:03;0.95;;;0.95;;
11414;SDS011;5763;42.714;23.244;2024-01-25T10:04:32;1.27;;;1.17;;
11414;SDS011;5763;42.714;23.244;2024-01-25T10:07:00;0.93;;;0.70;;
11414;SDS011;5763;42.714;23.244;2024-01-25T10:09:29;2.40;;;0.50;;
11414;SDS011;5763;42.714;23.244;2024-01-25T10:12:07;1.27;;;0.70;;
11414;SDS011;5763;42.714;23.244;2024-01-25T10:14:36;1.33;;;0.80;;
11414;SDS011;5763;42.714;23.244;2024-01-25T10:17:06;3.33;;;0.40;;
11414;SDS011;5763;42.714;23.244;2024-01-25T10:19:34;2.15;;;0.80;;
11414;SDS011;5763;42.714;23.244;2024-01-25T10:22:06;1.17;;;0.98;;
11414;SDS011;5763;42.714;23.244;2024-01-25T10:24:34;0.88;;;0.85;;
11414;SDS011;5763;42.714;23.244;2024-01-25T10:27:02;0.45;;;0.45;;
11414;SDS011;5763;42.714;23.244;2024-01-25T10:29:35;3.90;;;0.93;;
11414;SDS011;5763;42.714;23.244;2024-01-25T10:32:02;0.57;;;0.52;;
11414;SDS011;5763;42.714;23.244;2024-01-25T10:34:32;0.88;;;0.80;;
11414;SDS011;5763;42.714;23.244;2024-01-25T10:37:02;1.23;;;1.13;;
11414;SDS011;5763;42.714;23.244;2024-01-25T10:39:38;0.75;;;0.68;;
11414;SDS011;5763;42.714;23.244;2024-01-25T10:42:09;1.48;;;0.43;;
11414;SDS011;5763;42.714;23.244;2024-01-25T10:44:42;1.30;;;0.93;;
11414;SDS011;5763;42.714;23.244;2024-01-25T10:47:13;2.85;;;1.38;;
11414;SDS011;5763;42.714;23.244;2024-01-25T10:49:44;0.90;;;0.90;;
11414;SDS011;5763;42.714;23.244;2024-01-25T10:52:16;1.48;;;1.08;;
11414;SDS011;5763;42.714;23.244;2024-01-25T10:54:48;1.88;;;1.42;;
11414;SDS011;5763;42.714;23.244;2024-01-25T10:57:16;1.55;;;0.98;;
11414;SDS011;5763;42.714;23.244;2024-01-25T10:59:50;1.45;;;1.35;;
11414;SDS011;5763;42.714;23.244;2024-01-25T11:02:23;2.67;;;1.63;;
11414;SDS011;5763;42.714;23.244;2024-01-25T11:04:57;11.10;;;1.00;;
11414;SDS011;5763;42.714;23.244;2024-01-25T11:07:32;0.80;;;0.60;;
11414;SDS011;5763;42.714;23.244;2024-01-25T11:10:12;1.73;;;1.00;;
11414;SDS011;5763;42.714;23.244;2024-01-25T11:12:49;1.73;;;0.82;;
11414;SDS011;5763;42.714;23.244;2024-01-25T11:15:34;1.52;;;0.60;;
11414;SDS011;5763;42.714;23.244;2024-01-25T11:18:07;1.33;;;0.70;;
11414;SDS011;5763;42.714;23.244;2024-01-25T11:20:36;0.65;;;0.52;;
11414;SDS011;5763;42.714;23.244;2024-01-25T11:23:06;0.50;;;0.40;;
11414;SDS011;5763;42.714;23.244;2024-01-25T11:25:36;0.85;;;0.77;;
11414;SDS011;5763;42.714;23.244;2024-01-25T11:28:05;0.93;;;0.88;;
11414;SDS011;5763;42.714;23.244;2024-01-25T11:30:39;0.85;;;0.60;;
11414;SDS011;5763;42.714;23.244;2024-01-25T11:33:08;0.77;;;0.50;;
11414;SDS011;5763;42.714;23.244;2024-01-25T11:35:53;1.77;;;0.52;;
11414;SDS011;5763;42.714;23.244;2024-01-25T11:38:21;1.02;;;0.77;;
11414;SDS011;5763;42.714;23.244;2024-01-25T11:40:50;0.65;;;0.63;;
11414;SDS011;5763;42.714;23.244;2024-01-25T11:43:21;0.55;;;0.45;;
11414;SDS011;5763;42.714;23.244;2024-01-25T11:45:52;0.35;;;0.35;;
11414;SDS011;5763;42.714;23.244;2024-01-25T11:48:23;2.63;;;0.38;;
11414;SDS011;5763;42.714;23.244;2024-01-25T11:50:56;0.30;;;0.30;;
11414;SDS011;5763;42.714;23.244;2024-01-25T11:53:28;0.20;;;0.20;;
11414;SDS011;5763;42.714;23.244;2024-01-25T11:55:57;0.22;;;0.22;;
11414;SDS011;5763;42.714;23.244;2024-01-25T11:58:29;1.17;;;1.08;;
11414;SDS011;5763;42.714;23.244;2024-01-25T12:00:59;0.45;;;0.45;;
11414;SDS011;5763;42.714;23.244;2024-01-25T12:03:34;1.10;;;1.08;;
11414;SDS011;5763;42.714;23.244;2024-01-25T12:06:03;0.70;;;0.65;;
11414;SDS011;5763;42.714;23.244;2024-01-25T12:08:36;0.43;;;0.38;;
11414;SDS011;5763;42.714;23.244;2024-01-25T12:11:07;0.85;;;0.50;;
11414;SDS011;5763;42.714;23.244;2024-01-25T12:13:38;0.55;;;0.55;;
11414;SDS011;5763;42.714;23.244;2024-01-25T12:16:11;2.97;;;0.80;;
11414;SDS011;5763;42.714;23.244;2024-01-25T12:18:41;2.08;;;1.23;;
11414;SDS011;5763;42.714;23.244;2024-01-25T12:21:13;1.90;;;1.25;;
11414;SDS011;5763;42.714;23.244;2024-01-25T12:23:47;0.82;;;0.65;;
11414;SDS011;5763;42.714;23.244;2024-01-25T12:26:18;0.80;;;0.45;;
11414;SDS011;5763;42.714;23.244;2024-01-25T12:28:48;0.93;;;0.68;;
11414;SDS011;5763;42.714;23.244;2024-01-25T12:31:20;1.05;;;0.98;;
11414;SDS011;5763;42.714;23.244;2024-01-25T12:33:52;1.50;;;0.57;;
11414;SDS011;5763;42.714;23.244;2024-01-25T12:36:22;0.93;;;0.82;;
11414;SDS011;5763;42.714;23.244;2024-01-25T12:38:52;1.35;;;0.73;;
11414;SDS011;5763;42.714;23.244;2024-01-25T12:41:22;1.23;;;0.63;;
11414;SDS011;5763;42.714;23.244;2024-01-25T12:43:53;0.80;;;0.63;;
11414;SDS011;5763;42.714;23.244;2024-01-25T12:46:24;1.80;;;0.75;;
11414;SDS011;5763;42.714;23.244;2024-01-25T12:48:54;3.47;;;0.88;;
11414;SDS011;5763;42.714;23.244;2024-01-25T12:51:23;2.08;;;0.70;;
11414;SDS011;5763;42.714;23.244;2024-01-25T12:53:53;1.00;;;0.63;;
11414;SDS011;5763;42.714;23.244;2024-01-25T12:56:24;2.35;;;0.90;;
11414;SDS011;5763;42.714;23.244;2024-01-25T12:58:55;3.45;;;0.75;;
11414;SDS011;5763;42.714;23.244;2024-01-25T13:01:28;2.78;;;0.98;;
11414;SDS011;5763;42.714;23.244;2024-01-25T13:03:56;3.05;;;0.88;;
11414;SDS011;5763;42.714;23.244;2024-01-25T13:06:26;1.33;;;0.50;;
11414;SDS011;5763;42.714;23.244;2024-01-25T13:08:54;0.38;;;0.35;;
11414;SDS011;5763;42.714;23.244;2024-01-25T13:11:22;1.40;;;0.80;;
11414;SDS011;5763;42.714;23.244;2024-01-25T13:13:52;2.80;;;0.95;;
11414;SDS011;5763;42.714;23.244;2024-01-25T13:16:21;1.38;;;0.88;;
11414;SDS011;5763;42.714;23.244;2024-01-25T13:18:52;1.00;;;0.80;;
11414;SDS011;5763;42.714;23.244;2024-01-25T13:21:22;1.10;;;0.73;;
11414;SDS011;5763;42.714;23.244;2024-01-25T13:23:53;1.15;;;0.88;;
11414;SDS011;5763;42.714;23.244;2024-01-25T13:26:24;1.10;;;1.00;;
11414;SDS011;5763;42.714;23.244;2024-01-25T13:28:54;2.28;;;1.10;;
11414;SDS011;5763;42.714;23.244;2024-01-25T13:31:24;2.03;;;0.82;;
11414;SDS011;5763;42.714;23.244;2024-01-25T13:33:54;1.25;;;0.75;;
11414;SDS011;5763;42.714;23.244;2024-01-25T13:36:23;1.88;;;0.38;;
11414;SDS011;5763;42.714;23.244;2024-01-25T13:38:53;1.67;;;0.88;;
11414;SDS011;5763;42.714;23.244;2024-01-25T13:41:21;1.95;;;0.60;;
11414;SDS011;5763;42.714;23.244;2024-01-25T13:43:49;1.08;;;0.57;;
11414;SDS011;5763;42.714;23.244;2024-01-25T13:46:16;0.85;;;0.85;;
11414;SDS011;5763;42.714;23.244;2024-01-25T13:48:49;1.30;;;0.73;;
11414;SDS011;5763;42.714;23.244;2024-01-25T13:51:18;0.77;;;0.60;;
11414;SDS011;5763;42.714;23.244;2024-01-25T13:56:38;1.63;;;0.50;;
11414;SDS011;5763;42.714;23.244;2024-01-25T13:59:06;0.68;;;0.68;;
11414;SDS011;5763;42.714;23.244;2024-01-25T14:01:34;0.52;;;0.45;;
11414;SDS011;5763;42.714;23.244;2024-01-25T14:04:03;2.38;;;0.85;;
11414;SDS011;5763;42.714;23.244;2024-01-25T14:06:34;1.05;;;0.50;;
11414;SDS011;5763;42.714;23.244;2024-01-25T14:09:02;0.88;;;0.68;;
11414;SDS011;5763;42.714;23.244;2024-01-25T14:11:30;2.55;;;1.10;;
11414;SDS011;5763;42.714;23.244;2024-01-25T14:13:58;2.95;;;1.13;;
11414;SDS011;5763;42.714;23.244;2024-01-25T14:16:25;0.57;;;0.57;;
11414;SDS011;5763;42.714;23.244;2024-01-25T14:18:52;0.40;;;0.40;;
11414;SDS011;5763;42.714;23.244;2024-01-25T14:21:20;0.38;;;0.30;;
11414;SDS011;5763;42.714;23.244;2024-01-25T14:23:49;1.33;;;0.70;;
11414;SDS011;5763;42.714;23.244;2024-01-25T14:26:18;0.30;;;0.28;;
11414;SDS011;5763;42.714;23.244;2024-01-25T14:28:47;0.38;;;0.38;;
11414;SDS011;5763;42.714;23.244;2024-01-25T14:31:15;0.80;;;0.65;;
11414;SDS011;5763;42.714;23.244;2024-01-25T14:33:42;0.20;;;0.20;;
11414;SDS011;5763;42.714;23.244;2024-01-25T14:36:10;1.50;;;0.77;;
11414;SDS011;5763;42.714;23.244;2024-01-25T14:38:39;0.65;;;0.32;;
11414;SDS011;5763;42.714;23.244;2024-01-25T14:41:09;0.45;;;0.45;;
11414;SDS011;5763;42.714;23.244;2024-01-25T14:43:37;0.50;;;0.40;;
11414;SDS011;5763;42.714;23.244;2024-01-25T14:46:05;1.30;;;0.73;;
11414;SDS011;5763;42.714;23.244;2024-01-25T14:48:33;1.15;;;0.40;;
11414;SDS011;5763;42.714;23.244;2024-01-25T14:51:00;1.20;;;0.90;;
11414;SDS011;5763;42.714;23.244;2024-01-25T14:53:27;3.10;;;1.15;;
11414;SDS011;5763;42.714;23.244;2024-01-25T14:55:55;1.17;;;0.75;;
11414;SDS011;5763;42.714;23.244;2024-01-25T14:58:24;0.43;;;0.43;;
11414;SDS011;5763;42.714;23.244;2024-01-25T15:00:53;1.45;;;0.50;;